createdAt,value
2019-01-05T00:02:27.885Z,1.90
2019-01-05T00:05:12.346Z,1.90
2019-01-05T00:08:03.136Z,1.90
2019-01-05T00:10:48.020Z,1.90
2019-01-05T00:13:33.072Z,1.90
2019-01-05T00:16:18.405Z,1.90
2019-01-05T00:19:07.672Z,1.90
2019-01-05T00:21:57.584Z,2.00
2019-01-05T00:24:44.345Z,2.00
2019-01-05T00:27:30.477Z,1.90
2019-01-05T00:30:15.346Z,2.00
2019-01-05T00:33:07.699Z,2.00
2019-01-05T00:36:28.029Z,1.90
2019-01-05T00:39:23.329Z,1.90
2019-01-05T00:42:13.232Z,1.80
2019-01-05T00:44:58.567Z,1.90
2019-01-05T00:47:41.049Z,1.90
2019-01-05T00:50:30.253Z,1.90
2019-01-05T00:53:17.496Z,1.80
2019-01-05T00:56:22.903Z,1.90
2019-01-05T00:59:11.542Z,1.90
2019-01-05T01:01:58.993Z,1.90
2019-01-05T01:04:44.232Z,2.00
2019-01-05T01:07:36.597Z,1.90
2019-01-05T01:10:20.515Z,1.90
2019-01-05T01:13:05.394Z,1.90
2019-01-05T01:15:54.688Z,1.90
2019-01-05T01:18:36.344Z,2.00
2019-01-05T01:21:21.677Z,2.00
2019-01-05T01:24:00.273Z,2.00
2019-01-05T01:26:45.449Z,1.90
2019-01-05T01:29:42.073Z,1.90
2019-01-05T01:32:27.260Z,2.00
2019-01-05T01:35:19.026Z,1.90
2019-01-05T01:38:35.396Z,1.90
2019-01-05T01:41:23.016Z,1.90
2019-01-05T01:44:18.729Z,1.90
2019-01-05T01:47:10.499Z,1.80
2019-01-05T01:50:06.280Z,1.90
2019-01-05T01:53:05.453Z,1.90
2019-01-05T01:55:54.277Z,2.00
2019-01-05T01:58:45.242Z,2.00
2019-01-05T02:01:34.716Z,1.90
2019-01-05T02:04:26.801Z,1.90
2019-01-05T02:07:20.484Z,1.90
2019-01-05T02:10:06.822Z,1.90
2019-01-05T02:12:56.709Z,1.80
2019-01-05T02:15:46.136Z,1.80
2019-01-05T02:19:16.118Z,1.80
2019-01-05T02:22:14.737Z,1.80
2019-01-05T02:25:59.077Z,1.90
2019-01-05T02:29:26.004Z,1.90
2019-01-05T02:32:33.492Z,1.90
2019-01-05T02:35:45.551Z,1.90
2019-01-05T02:39:28.637Z,1.90
2019-01-05T02:42:47.705Z,1.90
2019-01-05T02:46:22.969Z,1.90
2019-01-05T02:49:33.817Z,1.90
2019-01-05T02:52:54.760Z,1.90
2019-01-05T02:56:24.268Z,1.90
2019-01-05T02:59:36.470Z,1.90
2019-01-05T03:03:31.803Z,1.90
2019-01-05T03:06:57.701Z,1.80
2019-01-05T03:10:36.583Z,1.90
2019-01-05T03:13:46.246Z,2.00
2019-01-05T03:17:18.240Z,1.90
2019-01-05T03:21:14.579Z,1.90
2019-01-05T03:24:57.473Z,1.90
2019-01-05T03:28:22.410Z,1.80
2019-01-05T03:31:56.509Z,1.80
2019-01-05T03:35:05.669Z,1.80
2019-01-05T03:38:31.936Z,1.80
2019-01-05T03:41:55.599Z,1.80
2019-01-05T03:45:14.405Z,1.80
2019-01-05T03:48:38.039Z,1.70
2019-01-05T03:51:38.164Z,1.70
2019-01-05T03:55:16.225Z,1.70
2019-01-05T03:58:31.740Z,1.70
2019-01-05T04:02:03.396Z,1.70
2019-01-05T04:06:04.719Z,1.70
2019-01-05T04:09:20.198Z,1.70
2019-01-05T04:12:17.841Z,1.70
2019-01-05T04:16:14.760Z,1.70
2019-01-05T04:19:31.658Z,1.60
2019-01-05T04:22:44.779Z,1.50
2019-01-05T04:26:17.821Z,1.60
2019-01-05T04:29:31.524Z,1.50
2019-01-05T04:32:48.903Z,1.50
2019-01-05T04:36:06.037Z,1.50
2019-01-05T04:39:37.048Z,1.40
2019-01-05T04:43:16.054Z,1.50
2019-01-05T04:46:51.943Z,1.40
2019-01-05T04:50:18.429Z,1.30
2019-01-05T04:53:51.441Z,1.20
2019-01-05T04:57:20.578Z,1.30
2019-01-05T05:00:33.921Z,1.20
2019-01-05T05:03:49.720Z,1.30
2019-01-05T05:07:21.042Z,1.20
2019-01-05T05:10:43.808Z,1.20
2019-01-05T05:14:24.180Z,1.20
2019-01-05T05:17:51.423Z,1.00
2019-01-05T05:21:15.057Z,1.10
2019-01-05T05:24:36.556Z,1.10
2019-01-05T05:27:52.491Z,1.00
2019-01-05T05:34:14.978Z,1.00
2019-01-05T05:37:42.147Z,1.10
2019-01-05T05:41:05.808Z,1.10
2019-01-05T05:44:34.933Z,1.10
2019-01-05T05:47:48.796Z,1.10
2019-01-05T05:51:00.573Z,0.90
2019-01-05T05:54:28.653Z,1.00
2019-01-05T05:58:13.784Z,1.00
2019-01-05T06:01:54.789Z,1.10
2019-01-05T06:05:11.004Z,1.10
2019-01-05T06:08:48.498Z,1.10
2019-01-05T06:12:08.609Z,1.20
2019-01-05T06:15:49.841Z,1.10
2019-01-05T06:19:23.629Z,1.10
2019-01-05T06:22:52.260Z,1.10
2019-01-05T06:26:24.424Z,1.00
2019-01-05T06:30:00.187Z,1.10
2019-01-05T06:33:33.776Z,1.10
2019-01-05T06:37:01.861Z,1.10
2019-01-05T06:40:16.869Z,1.10
2019-01-05T06:43:55.084Z,1.00
2019-01-05T06:47:28.493Z,1.00
2019-01-05T06:51:00.688Z,1.00
2019-01-05T06:54:33.465Z,1.10
2019-01-05T06:57:56.440Z,1.10
2019-01-05T07:01:25.139Z,1.20
2019-01-05T07:04:30.364Z,1.20
2019-01-05T07:07:51.030Z,1.10
2019-01-05T07:11:18.433Z,1.10
2019-01-05T07:14:44.276Z,1.20
2019-01-05T07:21:24.190Z,1.20
2019-01-05T07:25:04.514Z,1.20
2019-01-05T07:28:25.115Z,1.10
2019-01-05T07:31:43.424Z,1.20
2019-01-05T07:35:06.513Z,1.20
2019-01-05T07:38:19.705Z,1.30
2019-01-05T07:42:21.848Z,1.30
2019-01-05T07:45:38.097Z,1.30
2019-01-05T07:49:19.076Z,1.30
2019-01-05T07:52:32.105Z,1.30
2019-01-05T07:56:04.384Z,1.40
2019-01-05T07:59:37.172Z,1.40
2019-01-05T08:03:16.225Z,1.50
2019-01-05T08:06:35.064Z,1.40
2019-01-05T09:56:40.997Z,2.20
2019-01-05T10:00:08.309Z,2.20
2019-01-05T10:03:53.369Z,2.20
2019-01-05T10:07:07.745Z,2.10
2019-01-05T10:10:28.625Z,2.20
2019-01-05T10:13:52.956Z,2.30
2019-01-05T10:17:33.519Z,2.20
2019-01-05T10:21:08.313Z,2.10
2019-01-05T10:24:56.747Z,2.30
2019-01-05T10:28:44.599Z,2.20
2019-01-05T10:32:11.280Z,2.10
2019-01-05T10:35:29.238Z,2.20
2019-01-05T10:39:05.902Z,2.20
2019-01-05T10:42:28.335Z,2.40
2019-01-05T10:46:09.055Z,2.20
2019-01-05T10:49:48.265Z,2.40
2019-01-05T10:53:27.298Z,2.30
2019-01-05T10:57:03.195Z,2.20
2019-01-05T11:00:34.137Z,2.30
2019-01-05T11:04:04.327Z,2.40
2019-01-05T11:07:35.231Z,2.50
2019-01-05T11:10:59.271Z,2.50
2019-01-05T11:14:27.832Z,2.50
2019-01-05T11:17:45.253Z,2.50
2019-01-05T11:21:05.231Z,2.40
2019-01-05T11:24:10.797Z,2.50
2019-01-05T11:28:08.070Z,2.60
2019-01-05T11:31:46.500Z,2.70
2019-01-05T11:35:19.652Z,2.60
2019-01-05T11:38:40.043Z,2.70
2019-01-05T11:42:11.615Z,2.70
2019-01-05T11:45:53.173Z,3.00
2019-01-05T11:49:16.387Z,2.80
2019-01-05T11:52:48.198Z,2.90
2019-01-05T11:56:11.809Z,2.90
2019-01-05T11:59:55.995Z,3.00
2019-01-05T12:03:22.647Z,2.90
2019-01-05T12:06:45.457Z,3.00
2019-01-05T12:10:28.435Z,3.10
2019-01-05T12:14:07.494Z,3.00
2019-01-05T12:17:52.437Z,3.20
2019-01-05T12:21:52.090Z,3.20
2019-01-05T12:25:06.100Z,3.20
2019-01-05T12:28:21.984Z,3.30
2019-01-05T12:31:42.652Z,3.10
2019-01-05T12:35:05.497Z,3.20
2019-01-05T12:38:03.241Z,3.20
2019-01-05T12:41:48.013Z,3.20
2019-01-05T12:45:30.379Z,3.30
2019-01-05T12:49:07.582Z,3.40
2019-01-05T12:52:24.450Z,3.50
2019-01-05T12:56:14.403Z,3.30
2019-01-05T12:59:43.046Z,3.40
2019-01-05T13:03:14.277Z,3.50
2019-01-05T13:06:43.641Z,3.60
2019-01-05T13:10:11.405Z,3.70
2019-01-05T13:13:56.416Z,3.60
2019-01-05T13:17:14.870Z,3.60
2019-01-05T13:20:46.693Z,3.50
2019-01-05T13:24:23.981Z,3.60
2019-01-05T13:28:03.257Z,3.60
2019-01-05T13:31:48.601Z,3.60
2019-01-05T13:35:24.256Z,3.60
2019-01-05T13:39:02.698Z,3.70
2019-01-05T13:42:31.784Z,3.70
2019-01-05T13:45:43.530Z,3.60
2019-01-05T13:49:15.297Z,3.70
2019-01-05T13:52:52.845Z,3.70
2019-01-05T13:55:42.555Z,3.70
2019-01-05T13:58:29.081Z,3.70
2019-01-05T14:01:13.681Z,3.70
2019-01-05T14:04:03.008Z,3.80
2019-01-05T14:06:56.813Z,3.80
2019-01-05T14:09:42.309Z,3.80
2019-01-05T14:12:35.244Z,3.80
2019-01-05T14:15:27.639Z,3.90
2019-01-05T14:18:26.272Z,3.60
2019-01-05T14:21:11.237Z,3.80
2019-01-05T14:24:06.361Z,3.90
2019-01-05T14:26:57.663Z,4.00
2019-01-05T14:29:59.065Z,3.90
2019-01-05T14:32:51.296Z,3.90
2019-01-05T14:35:55.651Z,3.90
2019-01-05T14:38:40.236Z,3.80
2019-01-05T14:41:29.550Z,3.90
2019-01-05T14:44:10.613Z,3.90
2019-01-05T14:46:56.981Z,3.90
2019-01-05T14:49:41.809Z,3.90
2019-01-05T14:52:22.454Z,3.90
2019-01-05T14:54:59.418Z,3.90
2019-01-05T14:57:43.997Z,3.90
2019-01-05T15:00:36.558Z,4.00
2019-01-05T15:03:21.850Z,3.90
2019-01-05T15:06:07.227Z,3.90
2019-01-05T15:08:53.661Z,3.90
2019-01-05T15:11:49.394Z,3.90
2019-01-05T15:14:34.749Z,3.90
2019-01-05T15:17:19.894Z,3.90
2019-01-05T15:20:04.766Z,3.90
2019-01-05T15:22:51.205Z,3.90
2019-01-05T15:25:45.379Z,3.90
2019-01-05T15:28:23.871Z,3.90
2019-01-05T15:31:08.757Z,3.90
2019-01-05T15:33:53.710Z,3.90
2019-01-05T15:36:46.872Z,3.90
2019-01-05T15:39:33.280Z,3.90
2019-01-05T15:42:18.129Z,3.90
2019-01-05T15:45:17.158Z,3.90
2019-01-05T15:48:02.594Z,3.90
2019-01-05T15:50:44.247Z,3.90
2019-01-05T15:53:29.368Z,3.90
2019-01-05T15:56:14.266Z,4.00
2019-01-05T15:59:09.652Z,4.00
2019-01-05T16:01:48.022Z,4.00
2019-01-05T16:04:52.533Z,3.80
2019-01-05T16:07:34.058Z,3.80
2019-01-05T16:10:22.089Z,3.80
2019-01-05T16:13:06.889Z,3.90
2019-01-05T16:15:52.045Z,3.80
2019-01-05T16:18:36.684Z,3.90
2019-01-05T16:21:28.691Z,3.80
2019-01-05T16:24:17.981Z,3.80
2019-01-05T16:27:07.182Z,3.90
2019-01-05T16:30:02.981Z,3.90
2019-01-05T16:32:48.337Z,3.80
2019-01-05T16:35:26.219Z,3.80
2019-01-05T16:38:21.254Z,3.90
2019-01-05T16:41:10.461Z,3.90
2019-01-05T16:43:53.861Z,3.90
2019-01-05T16:46:40.413Z,3.90
2019-01-05T16:49:41.202Z,3.90
2019-01-05T16:52:36.301Z,3.90
2019-01-05T16:55:41.161Z,3.90
2019-01-05T16:58:25.349Z,3.90
2019-01-05T17:01:10.669Z,4.00
2019-01-05T17:03:56.201Z,3.90
2019-01-05T17:06:48.307Z,3.90
2019-01-05T17:09:40.500Z,3.90
2019-01-05T17:12:35.857Z,3.90
2019-01-05T17:15:21.106Z,3.90
2019-01-05T17:18:07.510Z,4.20
2019-01-05T17:21:00.026Z,3.90
2019-01-05T17:23:51.684Z,4.00
2019-01-05T17:26:55.864Z,4.00
2019-01-05T17:30:00.204Z,4.10
2019-01-05T17:32:59.457Z,4.00
2019-01-05T17:35:44.226Z,4.10
2019-01-05T17:38:42.801Z,4.10
2019-01-05T17:41:43.184Z,4.10
2019-01-05T17:44:32.428Z,4.10
2019-01-05T17:47:30.621Z,4.20
2019-01-05T17:50:11.814Z,4.20
2019-01-05T17:53:00.657Z,4.20
2019-01-05T17:55:46.114Z,4.20
2019-01-05T17:58:28.968Z,4.20
2019-01-05T18:01:30.306Z,4.30
2019-01-05T18:04:19.748Z,4.30
2019-01-05T18:07:04.673Z,4.30
2019-01-05T18:09:59.957Z,4.40
2019-01-05T18:12:46.372Z,4.30
2019-01-05T18:15:35.873Z,4.40
2019-01-05T18:18:28.476Z,4.40
2019-01-05T18:21:09.977Z,4.30
2019-01-05T18:23:59.183Z,4.30
2019-01-05T18:26:48.991Z,4.40
2019-01-05T18:29:47.300Z,4.40
2019-01-05T18:32:32.448Z,4.30
2019-01-05T18:35:20.323Z,4.30
2019-01-05T18:38:07.012Z,4.40
2019-01-05T18:40:57.838Z,4.50
2019-01-05T18:43:56.124Z,4.40
2019-01-05T18:46:41.292Z,4.40
2019-01-05T18:49:36.889Z,4.40
2019-01-05T18:52:25.150Z,4.40
2019-01-05T18:55:08.856Z,4.40
2019-01-05T18:57:53.761Z,4.40
2019-01-05T19:00:35.225Z,4.50
2019-01-05T19:03:20.251Z,4.50
2019-01-05T19:06:12.580Z,4.50
2019-01-05T19:09:00.861Z,4.40
2019-01-05T19:11:50.044Z,4.50
2019-01-05T19:14:34.818Z,4.40
2019-01-05T19:17:19.818Z,4.30
2019-01-05T19:20:03.793Z,4.40
2019-01-05T19:22:43.300Z,4.40
2019-01-05T19:25:38.933Z,4.50
2019-01-05T19:28:24.486Z,4.50
2019-01-05T19:31:17.744Z,4.50
2019-01-05T19:34:15.872Z,4.50
2019-01-05T19:37:09.855Z,4.40
2019-01-05T19:39:54.776Z,4.40
2019-01-05T19:42:39.669Z,4.50
2019-01-05T19:45:21.739Z,4.50
2019-01-05T19:48:14.349Z,4.40
2019-01-05T19:51:06.561Z,4.40
2019-01-05T19:54:03.337Z,4.50
2019-01-05T19:56:48.285Z,4.50
2019-01-05T19:59:26.205Z,4.50
2019-01-05T20:02:24.897Z,4.50
2019-01-05T20:05:14.725Z,4.60
2019-01-05T20:08:01.125Z,4.60
2019-01-05T20:10:45.781Z,4.50
2019-01-05T20:13:50.336Z,4.60
2019-01-05T20:16:36.764Z,4.60
2019-01-05T20:19:21.478Z,4.60
2019-01-05T20:22:02.789Z,4.60
2019-01-05T20:25:01.546Z,4.60
2019-01-05T20:28:02.705Z,4.60
2019-01-05T20:30:48.362Z,4.70
2019-01-05T20:33:39.427Z,4.70
2019-01-05T20:36:24.126Z,4.60
2019-01-05T20:39:13.653Z,4.70
2019-01-05T20:42:00.721Z,4.70
2019-01-05T20:44:45.995Z,4.70
2019-01-05T20:47:47.397Z,4.60
2019-01-05T20:50:32.786Z,4.70
2019-01-05T20:53:17.933Z,4.70
2019-01-05T20:56:07.495Z,4.60
2019-01-05T20:58:52.690Z,4.70
2019-01-05T21:01:57.195Z,4.70
2019-01-05T21:04:42.234Z,4.60
2019-01-05T21:07:40.615Z,4.70
2019-01-05T21:10:39.332Z,4.70
2019-01-05T21:13:26.697Z,4.70
2019-01-05T21:16:11.399Z,4.70
2019-01-05T21:18:56.397Z,4.70
2019-01-05T21:21:46.502Z,4.60
2019-01-05T21:24:31.797Z,4.70
2019-01-05T21:27:17.271Z,4.70
2019-01-05T21:30:10.458Z,4.60
2019-01-05T21:32:59.802Z,4.70
2019-01-05T21:35:44.462Z,4.60
2019-01-05T21:38:34.754Z,4.70
2019-01-05T21:41:36.606Z,4.70
2019-01-05T21:44:23.184Z,4.60
2019-01-05T21:47:09.727Z,4.50
2019-01-05T21:50:07.286Z,4.60
2019-01-05T21:52:49.224Z,4.60
2019-01-05T21:55:34.462Z,4.60
2019-01-05T21:58:10.666Z,4.60
2019-01-05T22:01:00.589Z,4.70
2019-01-05T22:04:04.752Z,4.60
2019-01-05T22:06:59.972Z,4.60
2019-01-05T22:09:52.656Z,4.60
2019-01-05T22:12:51.581Z,4.60
2019-01-05T22:15:30.023Z,4.40
2019-01-05T22:18:14.938Z,4.80
2019-01-05T22:20:57.486Z,4.70
2019-01-05T22:23:38.153Z,4.60
2019-01-05T22:26:27.781Z,4.60
2019-01-05T22:29:12.668Z,4.50
2019-01-05T22:31:57.863Z,4.60
2019-01-05T22:35:02.025Z,4.70
2019-01-05T22:37:50.208Z,4.60
2019-01-05T22:40:37.065Z,4.60
2019-01-05T22:43:34.197Z,4.60
2019-01-05T22:46:19.302Z,4.70
2019-01-05T22:49:23.806Z,4.60
2019-01-05T22:52:08.610Z,4.70
2019-01-05T22:54:44.434Z,4.70
2019-01-05T22:57:29.345Z,4.70
2019-01-05T23:00:14.514Z,4.60
2019-01-05T23:03:08.361Z,4.60
2019-01-05T23:05:53.162Z,4.80
2019-01-05T23:08:47.118Z,4.70
2019-01-05T23:11:36.662Z,4.70
2019-01-05T23:14:38.566Z,4.70
2019-01-05T23:17:28.397Z,4.70
2019-01-05T23:20:13.590Z,4.90
2019-01-05T23:23:05.981Z,4.80
2019-01-05T23:25:51.335Z,4.70
2019-01-05T23:28:46.581Z,4.80
2019-01-05T23:31:31.061Z,4.80
2019-01-05T23:34:16.429Z,4.80
2019-01-05T23:37:01.072Z,4.80
2019-01-05T23:39:46.101Z,4.80
2019-01-05T23:42:31.262Z,4.90
2019-01-05T23:45:21.499Z,4.80
2019-01-05T23:48:20.071Z,4.80
2019-01-05T23:51:04.713Z,4.80
2019-01-05T23:53:49.634Z,4.80
2019-01-05T23:56:43.586Z,4.80
2019-01-05T23:59:41.978Z,4.90
